sensor_id;sensor_type;location;lat;lon;timestamp;P1;durP1;ratioP1;P2;durP2;ratioP2
75696;SDS011;64312;44.738;20.612;2023-02-01T00:00:01;22.45;;;10.50;;
75696;SDS011;64312;44.738;20.612;2023-02-01T00:02:30;27.20;;;11.90;;
75696;SDS011;64312;44.738;20.612;2023-02-01T00:04:55;32.55;;;14.57;;
75696;SDS011;64312;44.738;20.612;2023-02-01T00:07:21;34.42;;;12.63;;
75696;SDS011;64312;44.738;20.612;2023-02-01T00:09:47;26.85;;;12.30;;
75696;SDS011;64312;44.738;20.612;2023-02-01T00:12:13;22.02;;;10.45;;
75696;SDS011;64312;44.738;20.612;2023-02-01T00:14:38;16.17;;;8.85;;
75696;SDS011;64312;44.738;20.612;2023-02-01T00:17:05;15.32;;;7.95;;
75696;SDS011;64312;44.738;20.612;2023-02-01T00:19:31;16.23;;;9.43;;
75696;SDS011;64312;44.738;20.612;2023-02-01T00:21:58;15.05;;;8.45;;
75696;SDS011;64312;44.738;20.612;2023-02-01T00:24:23;19.48;;;10.00;;
75696;SDS011;64312;44.738;20.612;2023-02-01T00:26:49;14.70;;;8.32;;
75696;SDS011;64312;44.738;20.612;2023-02-01T00:29:16;16.23;;;8.20;;
75696;SDS011;64312;44.738;20.612;2023-02-01T00:31:44;16.27;;;8.40;;
75696;SDS011;64312;44.738;20.612;2023-02-01T00:34:14;21.45;;;9.30;;
75696;SDS011;64312;44.738;20.612;2023-02-01T00:36:42;18.42;;;9.38;;
75696;SDS011;64312;44.738;20.612;2023-02-01T00:39:08;16.75;;;8.52;;
75696;SDS011;64312;44.738;20.612;2023-02-01T00:41:35;14.45;;;8.63;;
75696;SDS011;64312;44.738;20.612;2023-02-01T00:44:01;12.23;;;7.68;;
75696;SDS011;64312;44.738;20.612;2023-02-01T00:46:29;14.40;;;7.25;;
75696;SDS011;64312;44.738;20.612;2023-02-01T00:48:55;17.02;;;8.52;;
75696;SDS011;64312;44.738;20.612;2023-02-01T00:51:22;13.50;;;6.95;;
75696;SDS011;64312;44.738;20.612;2023-02-01T00:53:50;12.73;;;7.15;;
75696;SDS011;64312;44.738;20.612;2023-02-01T00:56:16;15.90;;;7.25;;
75696;SDS011;64312;44.738;20.612;2023-02-01T00:58:42;14.73;;;8.43;;
75696;SDS011;64312;44.738;20.612;2023-02-01T01:03:38;13.57;;;7.00;;
75696;SDS011;64312;44.738;20.612;2023-02-01T01:06:08;11.45;;;6.18;;
75696;SDS011;64312;44.738;20.612;2023-02-01T01:08:35;12.48;;;7.07;;
75696;SDS011;64312;44.738;20.612;2023-02-01T01:11:22;12.38;;;7.40;;
75696;SDS011;64312;44.738;20.612;2023-02-01T01:13:50;16.20;;;7.50;;
75696;SDS011;64312;44.738;20.612;2023-02-01T01:16:18;16.30;;;7.65;;
75696;SDS011;64312;44.738;20.612;2023-02-01T01:18:44;15.82;;;7.53;;
75696;SDS011;64312;44.738;20.612;2023-02-01T01:21:11;16.23;;;7.40;;
75696;SDS011;64312;44.738;20.612;2023-02-01T01:23:39;17.90;;;8.45;;
75696;SDS011;64312;44.738;20.612;2023-02-01T01:26:05;15.05;;;8.45;;
75696;SDS011;64312;44.738;20.612;2023-02-01T01:28:33;17.77;;;7.95;;
75696;SDS011;64312;44.738;20.612;2023-02-01T01:30:58;16.50;;;7.30;;
75696;SDS011;64312;44.738;20.612;2023-02-01T01:33:24;13.90;;;6.28;;
75696;SDS011;64312;44.738;20.612;2023-02-01T01:35:50;8.70;;;5.88;;
75696;SDS011;64312;44.738;20.612;2023-02-01T01:38:16;16.30;;;7.40;;
75696;SDS011;64312;44.738;20.612;2023-02-01T01:40:44;10.07;;;5.65;;
75696;SDS011;64312;44.738;20.612;2023-02-01T01:43:14;10.20;;;5.35;;
75696;SDS011;64312;44.738;20.612;2023-02-01T01:45:42;10.70;;;6.05;;
75696;SDS011;64312;44.738;20.612;2023-02-01T01:50:56;11.57;;;6.03;;
75696;SDS011;64312;44.738;20.612;2023-02-01T01:53:34;10.77;;;5.70;;
75696;SDS011;64312;44.738;20.612;2023-02-01T01:56:06;11.63;;;6.55;;
75696;SDS011;64312;44.738;20.612;2023-02-01T01:58:31;15.38;;;7.38;;
75696;SDS011;64312;44.738;20.612;2023-02-01T02:00:58;11.80;;;5.43;;
75696;SDS011;64312;44.738;20.612;2023-02-01T02:05:59;10.23;;;5.07;;
75696;SDS011;64312;44.738;20.612;2023-02-01T02:08:27;11.75;;;3.65;;
75696;SDS011;64312;44.738;20.612;2023-02-01T02:10:53;7.82;;;4.85;;
75696;SDS011;64312;44.738;20.612;2023-02-01T02:35:12;5.47;;;3.05;;
75696;SDS011;64312;44.738;20.612;2023-02-01T02:38:02;7.80;;;3.70;;
75696;SDS011;64312;44.738;20.612;2023-02-01T02:43:52;7.05;;;3.45;;
75696;SDS011;64312;44.738;20.612;2023-02-01T02:46:45;6.22;;;2.72;;
75696;SDS011;64312;44.738;20.612;2023-02-01T02:49:42;6.38;;;3.30;;
75696;SDS011;64312;44.738;20.612;2023-02-01T02:52:38;4.88;;;3.08;;
75696;SDS011;64312;44.738;20.612;2023-02-01T02:55:28;4.82;;;3.05;;
75696;SDS011;64312;44.738;20.612;2023-02-01T02:57:55;6.18;;;3.25;;
75696;SDS011;64312;44.738;20.612;2023-02-01T03:00:41;8.52;;;3.78;;
75696;SDS011;64312;44.738;20.612;2023-02-01T03:03:27;6.15;;;3.25;;
75696;SDS011;64312;44.738;20.612;2023-02-01T03:06:15;6.57;;;3.22;;
75696;SDS011;64312;44.738;20.612;2023-02-01T03:08:44;4.28;;;3.58;;
75696;SDS011;64312;44.738;20.612;2023-02-01T03:11:14;6.47;;;4.15;;
75696;SDS011;64312;44.738;20.612;2023-02-01T03:13:57;5.68;;;3.45;;
75696;SDS011;64312;44.738;20.612;2023-02-01T03:16:36;7.13;;;3.90;;
75696;SDS011;64312;44.738;20.612;2023-02-01T03:19:14;7.03;;;3.67;;
75696;SDS011;64312;44.738;20.612;2023-02-01T03:21:50;6.72;;;4.47;;
75696;SDS011;64312;44.738;20.612;2023-02-01T03:26:48;7.30;;;3.53;;
75696;SDS011;64312;44.738;20.612;2023-02-01T03:29:40;6.95;;;3.90;;
75696;SDS011;64312;44.738;20.612;2023-02-01T03:32:11;9.00;;;4.18;;
75696;SDS011;64312;44.738;20.612;2023-02-01T03:34:38;8.48;;;3.92;;
75696;SDS011;64312;44.738;20.612;2023-02-01T03:37:06;12.15;;;5.45;;
75696;SDS011;64312;44.738;20.612;2023-02-01T03:39:48;13.23;;;5.93;;
75696;SDS011;64312;44.738;20.612;2023-02-01T03:42:38;10.60;;;5.05;;
75696;SDS011;64312;44.738;20.612;2023-02-01T03:45:11;9.93;;;4.25;;
75696;SDS011;64312;44.738;20.612;2023-02-01T03:47:46;5.68;;;3.60;;
75696;SDS011;64312;44.738;20.612;2023-02-01T03:50:19;8.07;;;3.38;;
75696;SDS011;64312;44.738;20.612;2023-02-01T03:52:52;7.32;;;3.58;;
75696;SDS011;64312;44.738;20.612;2023-02-01T03:55:22;6.32;;;3.63;;
75696;SDS011;64312;44.738;20.612;2023-02-01T03:57:53;5.28;;;3.40;;
75696;SDS011;64312;44.738;20.612;2023-02-01T04:00:25;6.95;;;3.25;;
75696;SDS011;64312;44.738;20.612;2023-02-01T04:02:53;11.63;;;5.90;;
75696;SDS011;64312;44.738;20.612;2023-02-01T04:05:19;9.50;;;5.35;;
75696;SDS011;64312;44.738;20.612;2023-02-01T04:07:53;8.50;;;5.00;;
75696;SDS011;64312;44.738;20.612;2023-02-01T04:10:19;8.05;;;4.30;;
75696;SDS011;64312;44.738;20.612;2023-02-01T04:12:45;6.63;;;4.43;;
75696;SDS011;64312;44.738;20.612;2023-02-01T04:15:11;5.53;;;3.88;;
75696;SDS011;64312;44.738;20.612;2023-02-01T04:17:36;8.40;;;3.85;;
75696;SDS011;64312;44.738;20.612;2023-02-01T04:20:02;6.93;;;3.70;;
75696;SDS011;64312;44.738;20.612;2023-02-01T04:22:29;6.50;;;3.72;;
75696;SDS011;64312;44.738;20.612;2023-02-01T04:24:55;8.15;;;4.15;;
75696;SDS011;64312;44.738;20.612;2023-02-01T04:27:21;9.15;;;3.80;;
75696;SDS011;64312;44.738;20.612;2023-02-01T04:29:47;8.23;;;3.25;;
75696;SDS011;64312;44.738;20.612;2023-02-01T04:32:15;6.82;;;3.38;;
75696;SDS011;64312;44.738;20.612;2023-02-01T04:34:41;5.07;;;3.38;;
75696;SDS011;64312;44.738;20.612;2023-02-01T04:37:07;6.55;;;3.42;;
75696;SDS011;64312;44.738;20.612;2023-02-01T04:39:33;10.07;;;4.22;;
75696;SDS011;64312;44.738;20.612;2023-02-01T04:41:58;9.05;;;4.15;;
75696;SDS011;64312;44.738;20.612;2023-02-01T04:44:24;5.93;;;3.90;;
75696;SDS011;64312;44.738;20.612;2023-02-01T04:46:50;5.90;;;3.83;;
75696;SDS011;64312;44.738;20.612;2023-02-01T04:49:16;8.02;;;4.05;;
75696;SDS011;64312;44.738;20.612;2023-02-01T04:51:41;6.80;;;3.90;;
75696;SDS011;64312;44.738;20.612;2023-02-01T04:54:08;8.52;;;4.13;;
75696;SDS011;64312;44.738;20.612;2023-02-01T04:56:36;7.00;;;4.35;;
75696;SDS011;64312;44.738;20.612;2023-02-01T04:59:02;7.07;;;2.95;;
75696;SDS011;64312;44.738;20.612;2023-02-01T05:01:28;7.85;;;3.28;;
75696;SDS011;64312;44.738;20.612;2023-02-01T05:03:54;4.90;;;2.88;;
75696;SDS011;64312;44.738;20.612;2023-02-01T05:06:20;4.65;;;2.60;;
75696;SDS011;64312;44.738;20.612;2023-02-01T05:08:45;4.72;;;2.88;;
75696;SDS011;64312;44.738;20.612;2023-02-01T05:11:11;5.95;;;3.22;;
75696;SDS011;64312;44.738;20.612;2023-02-01T05:13:57;5.93;;;3.10;;
75696;SDS011;64312;44.738;20.612;2023-02-01T05:16:23;5.75;;;3.15;;
75696;SDS011;64312;44.738;20.612;2023-02-01T05:18:50;4.88;;;3.03;;
75696;SDS011;64312;44.738;20.612;2023-02-01T05:21:15;7.28;;;2.95;;
75696;SDS011;64312;44.738;20.612;2023-02-01T05:23:41;5.03;;;2.58;;
75696;SDS011;64312;44.738;20.612;2023-02-01T05:26:26;7.72;;;3.10;;
75696;SDS011;64312;44.738;20.612;2023-02-01T05:28:51;3.50;;;2.80;;
75696;SDS011;64312;44.738;20.612;2023-02-01T05:31:17;4.82;;;2.90;;
75696;SDS011;64312;44.738;20.612;2023-02-01T05:33:43;6.18;;;2.83;;
75696;SDS011;64312;44.738;20.612;2023-02-01T05:36:08;5.47;;;3.22;;
75696;SDS011;64312;44.738;20.612;2023-02-01T05:38:34;6.30;;;3.60;;
75696;SDS011;64312;44.738;20.612;2023-02-01T05:41:00;11.30;;;4.95;;
75696;SDS011;64312;44.738;20.612;2023-02-01T05:43:25;7.07;;;4.78;;
75696;SDS011;64312;44.738;20.612;2023-02-01T05:45:52;12.10;;;6.03;;
75696;SDS011;64312;44.738;20.612;2023-02-01T05:48:18;12.50;;;6.43;;
75696;SDS011;64312;44.738;20.612;2023-02-01T05:50:43;15.77;;;6.90;;
75696;SDS011;64312;44.738;20.612;2023-02-01T05:53:09;14.45;;;6.40;;
75696;SDS011;64312;44.738;20.612;2023-02-01T05:55:36;14.10;;;7.70;;
75696;SDS011;64312;44.738;20.612;2023-02-01T05:58:02;19.33;;;8.25;;
75696;SDS011;64312;44.738;20.612;2023-02-01T06:00:28;16.45;;;6.93;;
75696;SDS011;64312;44.738;20.612;2023-02-01T06:02:54;10.80;;;6.00;;
75696;SDS011;64312;44.738;20.612;2023-02-01T06:05:20;9.52;;;5.55;;
75696;SDS011;64312;44.738;20.612;2023-02-01T06:07:46;10.13;;;4.68;;
75696;SDS011;64312;44.738;20.612;2023-02-01T06:10:12;9.85;;;5.82;;
75696;SDS011;64312;44.738;20.612;2023-02-01T06:12:38;8.85;;;5.03;;
75696;SDS011;64312;44.738;20.612;2023-02-01T06:15:04;15.07;;;6.30;;
75696;SDS011;64312;44.738;20.612;2023-02-01T06:17:30;12.82;;;5.03;;
75696;SDS011;64312;44.738;20.612;2023-02-01T06:19:56;17.23;;;6.05;;
75696;SDS011;64312;44.738;20.612;2023-02-01T06:22:22;36.70;;;11.70;;
75696;SDS011;64312;44.738;20.612;2023-02-01T06:24:47;15.00;;;7.00;;
75696;SDS011;64312;44.738;20.612;2023-02-01T06:27:14;14.75;;;6.57;;
75696;SDS011;64312;44.738;20.612;2023-02-01T06:29:40;11.20;;;5.35;;
75696;SDS011;64312;44.738;20.612;2023-02-01T06:32:06;10.00;;;3.95;;
75696;SDS011;64312;44.738;20.612;2023-02-01T06:34:32;17.23;;;5.28;;
75696;SDS011;64312;44.738;20.612;2023-02-01T06:36:58;25.80;;;10.57;;
75696;SDS011;64312;44.738;20.612;2023-02-01T06:39:23;13.80;;;5.95;;
75696;SDS011;64312;44.738;20.612;2023-02-01T06:41:49;7.65;;;4.00;;
75696;SDS011;64312;44.738;20.612;2023-02-01T06:44:15;5.60;;;3.70;;
75696;SDS011;64312;44.738;20.612;2023-02-01T06:46:42;7.05;;;3.70;;
75696;SDS011;64312;44.738;20.612;2023-02-01T06:49:07;9.88;;;5.18;;
75696;SDS011;64312;44.738;20.612;2023-02-01T06:51:33;13.30;;;4.10;;
75696;SDS011;64312;44.738;20.612;2023-02-01T06:53:59;9.32;;;4.70;;
75696;SDS011;64312;44.738;20.612;2023-02-01T06:56:25;8.00;;;4.63;;
75696;SDS011;64312;44.738;20.612;2023-02-01T06:58:51;8.95;;;4.47;;
75696;SDS011;64312;44.738;20.612;2023-02-01T07:01:17;12.63;;;4.43;;
75696;SDS011;64312;44.738;20.612;2023-02-01T07:03:43;9.25;;;4.85;;
75696;SDS011;64312;44.738;20.612;2023-02-01T07:06:12;15.07;;;5.28;;
75696;SDS011;64312;44.738;20.612;2023-02-01T07:08:38;8.32;;;5.07;;
75696;SDS011;64312;44.738;20.612;2023-02-01T07:11:08;9.80;;;5.18;;
75696;SDS011;64312;44.738;20.612;2023-02-01T07:13:36;8.05;;;5.07;;
75696;SDS011;64312;44.738;20.612;2023-02-01T07:16:03;10.43;;;4.50;;
75696;SDS011;64312;44.738;20.612;2023-02-01T07:18:34;9.43;;;5.28;;
75696;SDS011;64312;44.738;20.612;2023-02-01T07:21:00;9.80;;;5.45;;
75696;SDS011;64312;44.738;20.612;2023-02-01T07:23:26;14.77;;;7.28;;
75696;SDS011;64312;44.738;20.612;2023-02-01T07:25:53;12.10;;;6.35;;
75696;SDS011;64312;44.738;20.612;2023-02-01T07:28:20;12.73;;;5.93;;
75696;SDS011;64312;44.738;20.612;2023-02-01T07:30:46;12.32;;;6.47;;
75696;SDS011;64312;44.738;20.612;2023-02-01T07:33:17;14.82;;;7.07;;
75696;SDS011;64312;44.738;20.612;2023-02-01T07:35:47;11.20;;;5.85;;
75696;SDS011;64312;44.738;20.612;2023-02-01T07:38:14;12.90;;;5.70;;
75696;SDS011;64312;44.738;20.612;2023-02-01T07:40:40;11.95;;;5.53;;
75696;SDS011;64312;44.738;20.612;2023-02-01T07:43:06;11.23;;;6.68;;
75696;SDS011;64312;44.738;20.612;2023-02-01T07:45:33;14.50;;;5.40;;
75696;SDS011;64312;44.738;20.612;2023-02-01T07:48:00;13.50;;;5.97;;
75696;SDS011;64312;44.738;20.612;2023-02-01T07:50:26;11.73;;;5.53;;
75696;SDS011;64312;44.738;20.612;2023-02-01T07:52:51;15.20;;;7.82;;
75696;SDS011;64312;44.738;20.612;2023-02-01T07:55:18;16.85;;;7.68;;
75696;SDS011;64312;44.738;20.612;2023-02-01T07:57:45;16.45;;;7.75;;
75696;SDS011;64312;44.738;20.612;2023-02-01T08:00:11;17.58;;;9.13;;
75696;SDS011;64312;44.738;20.612;2023-02-01T08:02:59;17.92;;;8.50;;
75696;SDS011;64312;44.738;20.612;2023-02-01T08:05:25;16.02;;;9.45;;
75696;SDS011;64312;44.738;20.612;2023-02-01T08:07:51;20.08;;;9.05;;
75696;SDS011;64312;44.738;20.612;2023-02-01T08:10:17;18.25;;;9.38;;
75696;SDS011;64312;44.738;20.612;2023-02-01T08:12:44;25.58;;;10.10;;
75696;SDS011;64312;44.738;20.612;2023-02-01T08:15:17;22.38;;;9.73;;
75696;SDS011;64312;44.738;20.612;2023-02-01T08:17:47;17.70;;;7.63;;
75696;SDS011;64312;44.738;20.612;2023-02-01T08:20:14;22.17;;;8.57;;
75696;SDS011;64312;44.738;20.612;2023-02-01T08:22:39;15.20;;;7.13;;
75696;SDS011;64312;44.738;20.612;2023-02-01T08:25:06;18.15;;;7.25;;
75696;SDS011;64312;44.738;20.612;2023-02-01T08:27:32;14.32;;;6.65;;
75696;SDS011;64312;44.738;20.612;2023-02-01T08:29:59;18.15;;;6.57;;
75696;SDS011;64312;44.738;20.612;2023-02-01T08:32:25;17.67;;;7.45;;
75696;SDS011;64312;44.738;20.612;2023-02-01T08:34:52;12.80;;;7.18;;
75696;SDS011;64312;44.738;20.612;2023-02-01T08:37:17;22.05;;;9.95;;
75696;SDS011;64312;44.738;20.612;2023-02-01T08:39:43;27.42;;;11.98;;
75696;SDS011;64312;44.738;20.612;2023-02-01T08:42:09;22.27;;;10.70;;
75696;SDS011;64312;44.738;20.612;2023-02-01T08:44:55;22.65;;;10.10;;
75696;SDS011;64312;44.738;20.612;2023-02-01T08:47:21;18.60;;;10.48;;
75696;SDS011;64312;44.738;20.612;2023-02-01T08:49:47;19.90;;;9.35;;
75696;SDS011;64312;44.738;20.612;2023-02-01T08:52:13;16.35;;;8.18;;
75696;SDS011;64312;44.738;20.612;2023-02-01T08:54:38;18.42;;;8.57;;
75696;SDS011;64312;44.738;20.612;2023-02-01T08:57:06;15.88;;;8.38;;
75696;SDS011;64312;44.738;20.612;2023-02-01T08:59:34;19.45;;;8.20;;
75696;SDS011;64312;44.738;20.612;2023-02-01T09:02:00;14.15;;;8.05;;
75696;SDS011;64312;44.738;20.612;2023-02-01T09:04:26;16.95;;;8.55;;
75696;SDS011;64312;44.738;20.612;2023-02-01T09:06:52;14.68;;;8.73;;
75696;SDS011;64312;44.738;20.612;2023-02-01T09:09:21;15.07;;;7.75;;
75696;SDS011;64312;44.738;20.612;2023-02-01T09:11:47;14.20;;;7.75;;
75696;SDS011;64312;44.738;20.612;2023-02-01T09:14:14;19.25;;;8.57;;
75696;SDS011;64312;44.738;20.612;2023-02-01T09:16:40;15.85;;;8.27;;
75696;SDS011;64312;44.738;20.612;2023-02-01T09:19:06;20.50;;;10.52;;
75696;SDS011;64312;44.738;20.612;2023-02-01T09:21:31;16.00;;;7.70;;
75696;SDS011;64312;44.738;20.612;2023-02-01T09:23:57;16.40;;;6.97;;
75696;SDS011;64312;44.738;20.612;2023-02-01T09:26:23;11.23;;;6.53;;
75696;SDS011;64312;44.738;20.612;2023-02-01T09:28:51;11.63;;;6.30;;
75696;SDS011;64312;44.738;20.612;2023-02-01T09:31:16;15.43;;;7.65;;
75696;SDS011;64312;44.738;20.612;2023-02-01T09:33:43;15.13;;;7.93;;
75696;SDS011;64312;44.738;20.612;2023-02-01T09:36:08;10.48;;;6.18;;
75696;SDS011;64312;44.738;20.612;2023-02-01T09:38:34;14.00;;;6.75;;
75696;SDS011;64312;44.738;20.612;2023-02-01T09:41:00;15.00;;;7.53;;
75696;SDS011;64312;44.738;20.612;2023-02-01T09:43:44;19.58;;;10.65;;
75696;SDS011;64312;44.738;20.612;2023-02-01T09:46:28;12.70;;;7.57;;
75696;SDS011;64312;44.738;20.612;2023-02-01T09:48:57;25.83;;;12.55;;
75696;SDS011;64312;44.738;20.612;2023-02-01T09:51:36;18.98;;;11.23;;
75696;SDS011;64312;44.738;20.612;2023-02-01T09:54:21;18.58;;;9.60;;
75696;SDS011;64312;44.738;20.612;2023-02-01T10:00:17;30.95;;;14.32;;
75696;SDS011;64312;44.738;20.612;2023-02-01T10:02:46;24.38;;;12.68;;
75696;SDS011;64312;44.738;20.612;2023-02-01T10:05:13;18.70;;;9.25;;
75696;SDS011;64312;44.738;20.612;2023-02-01T10:07:45;23.17;;;13.55;;
75696;SDS011;64312;44.738;20.612;2023-02-01T10:10:32;21.95;;;10.23;;
75696;SDS011;64312;44.738;20.612;2023-02-01T10:15:43;13.07;;;6.88;;
75696;SDS011;64312;44.738;20.612;2023-02-01T10:20:57;14.13;;;7.68;;
75696;SDS011;64312;44.738;20.612;2023-02-01T10:26:21;13.75;;;6.35;;
75696;SDS011;64312;44.738;20.612;2023-02-01T10:28:58;10.77;;;5.95;;
75696;SDS011;64312;44.738;20.612;2023-02-01T10:31:28;15.60;;;7.57;;
75696;SDS011;64312;44.738;20.612;2023-02-01T10:33:56;14.40;;;7.53;;
75696;SDS011;64312;44.738;20.612;2023-02-01T10:39:25;13.30;;;7.10;;
75696;SDS011;64312;44.738;20.612;2023-02-01T10:41:50;14.43;;;7.32;;
75696;SDS011;64312;44.738;20.612;2023-02-01T10:44:19;13.98;;;7.53;;
75696;SDS011;64312;44.738;20.612;2023-02-01T10:46:51;17.33;;;6.88;;
75696;SDS011;64312;44.738;20.612;2023-02-01T10:49:26;18.73;;;10.15;;
75696;SDS011;64312;44.738;20.612;2023-02-01T10:51:59;74.95;;;30.30;;
75696;SDS011;64312;44.738;20.612;2023-02-01T10:54:39;43.92;;;20.58;;
75696;SDS011;64312;44.738;20.612;2023-02-01T10:57:25;58.03;;;20.17;;
75696;SDS011;64312;44.738;20.612;2023-02-01T11:02:30;25.58;;;9.38;;
75696;SDS011;64312;44.738;20.612;2023-02-01T11:04:58;14.73;;;7.93;;
75696;SDS011;64312;44.738;20.612;2023-02-01T11:07:26;15.65;;;7.90;;
75696;SDS011;64312;44.738;20.612;2023-02-01T11:09:52;17.40;;;9.20;;
75696;SDS011;64312;44.738;20.612;2023-02-01T11:15:13;12.32;;;6.97;;
75696;SDS011;64312;44.738;20.612;2023-02-01T11:17:44;14.65;;;8.30;;
75696;SDS011;64312;44.738;20.612;2023-02-01T11:20:16;13.75;;;8.32;;
75696;SDS011;64312;44.738;20.612;2023-02-01T11:22:47;16.35;;;8.60;;
75696;SDS011;64312;44.738;20.612;2023-02-01T11:25:18;27.38;;;11.77;;
75696;SDS011;64312;44.738;20.612;2023-02-01T11:27:44;19.55;;;7.55;;
75696;SDS011;64312;44.738;20.612;2023-02-01T11:30:14;14.93;;;7.47;;
75696;SDS011;64312;44.738;20.612;2023-02-01T11:32:59;20.48;;;10.15;;
75696;SDS011;64312;44.738;20.612;2023-02-01T11:35:26;9.52;;;6.10;;
75696;SDS011;64312;44.738;20.612;2023-02-01T11:37:55;11.00;;;5.43;;
75696;SDS011;64312;44.738;20.612;2023-02-01T11:40:36;6.97;;;4.07;;
75696;SDS011;64312;44.738;20.612;2023-02-01T11:45:32;8.65;;;4.10;;
75696;SDS011;64312;44.738;20.612;2023-02-01T11:48:00;8.48;;;4.03;;
75696;SDS011;64312;44.738;20.612;2023-02-01T11:54:23;4.50;;;2.88;;
75696;SDS011;64312;44.738;20.612;2023-02-01T11:59:22;8.20;;;3.33;;
75696;SDS011;64312;44.738;20.612;2023-02-01T12:07:21;13.23;;;6.53;;
75696;SDS011;64312;44.738;20.612;2023-02-01T12:24:01;8.48;;;6.15;;
75696;SDS011;64312;44.738;20.612;2023-02-01T12:40:31;9.02;;;4.55;;
75696;SDS011;64312;44.738;20.612;2023-02-01T12:42:52;11.18;;;5.15;;
75696;SDS011;64312;44.738;20.612;2023-02-01T12:45:26;7.95;;;4.05;;
75696;SDS011;64312;44.738;20.612;2023-02-01T12:50:28;11.00;;;5.03;;
75696;SDS011;64312;44.738;20.612;2023-02-01T12:53:09;11.40;;;5.45;;
75696;SDS011;64312;44.738;20.612;2023-02-01T12:55:47;9.65;;;5.85;;
75696;SDS011;64312;44.738;20.612;2023-02-01T12:58:38;11.07;;;5.63;;
75696;SDS011;64312;44.738;20.612;2023-02-01T13:01:12;9.10;;;4.25;;
75696;SDS011;64312;44.738;20.612;2023-02-01T13:06:50;10.65;;;5.50;;
75696;SDS011;64312;44.738;20.612;2023-02-01T13:11:51;9.10;;;4.38;;
75696;SDS011;64312;44.738;20.612;2023-02-01T13:14:25;8.73;;;3.38;;
75696;SDS011;64312;44.738;20.612;2023-02-01T13:17:02;10.95;;;3.90;;
75696;SDS011;64312;44.738;20.612;2023-02-01T13:19:45;8.32;;;3.90;;
75696;SDS011;64312;44.738;20.612;2023-02-01T13:24:54;4.22;;;2.53;;
75696;SDS011;64312;44.738;20.612;2023-02-01T13:27:25;7.47;;;2.63;;
75696;SDS011;64312;44.738;20.612;2023-02-01T13:37:48;8.68;;;3.75;;
75696;SDS011;64312;44.738;20.612;2023-02-01T13:43:27;9.63;;;3.55;;
75696;SDS011;64312;44.738;20.612;2023-02-01T13:45:57;7.07;;;4.03;;
75696;SDS011;64312;44.738;20.612;2023-02-01T13:51:14;6.00;;;3.70;;
75696;SDS011;64312;44.738;20.612;2023-02-01T13:53:46;7.22;;;3.53;;
75696;SDS011;64312;44.738;20.612;2023-02-01T13:56:15;9.27;;;4.60;;
75696;SDS011;64312;44.738;20.612;2023-02-01T13:58:44;9.90;;;3.83;;
75696;SDS011;64312;44.738;20.612;2023-02-01T14:06:17;4.75;;;2.10;;
75696;SDS011;64312;44.738;20.612;2023-02-01T14:19:24;3.20;;;1.85;;
75696;SDS011;64312;44.738;20.612;2023-02-01T14:21:53;2.97;;;1.30;;
75696;SDS011;64312;44.738;20.612;2023-02-01T14:24:25;2.63;;;1.80;;
75696;SDS011;64312;44.738;20.612;2023-02-01T14:26:54;2.63;;;1.58;;
75696;SDS011;64312;44.738;20.612;2023-02-01T14:29:25;5.25;;;2.00;;
75696;SDS011;64312;44.738;20.612;2023-02-01T14:40:00;7.95;;;3.42;;
75696;SDS011;64312;44.738;20.612;2023-02-01T14:47:47;8.00;;;4.35;;
75696;SDS011;64312;44.738;20.612;2023-02-01T15:01:01;12.50;;;6.38;;
75696;SDS011;64312;44.738;20.612;2023-02-01T15:08:44;16.40;;;7.93;;
75696;SDS011;64312;44.738;20.612;2023-02-01T15:11:12;23.65;;;11.00;;
75696;SDS011;64312;44.738;20.612;2023-02-01T15:13:47;29.35;;;13.07;;
75696;SDS011;64312;44.738;20.612;2023-02-01T15:16:19;31.02;;;14.85;;
75696;SDS011;64312;44.738;20.612;2023-02-01T15:18:47;29.15;;;12.13;;
75696;SDS011;64312;44.738;20.612;2023-02-01T15:23:42;22.70;;;10.82;;
75696;SDS011;64312;44.738;20.612;2023-02-01T15:26:08;22.77;;;11.82;;
75696;SDS011;64312;44.738;20.612;2023-02-01T15:28:34;22.23;;;11.43;;
75696;SDS011;64312;44.738;20.612;2023-02-01T15:31:04;24.13;;;12.98;;
75696;SDS011;64312;44.738;20.612;2023-02-01T15:33:33;32.15;;;16.27;;
75696;SDS011;64312;44.738;20.612;2023-02-01T15:38:37;33.25;;;16.48;;
75696;SDS011;64312;44.738;20.612;2023-02-01T15:46:25;34.00;;;16.42;;
75696;SDS011;64312;44.738;20.612;2023-02-01T15:48:57;36.80;;;15.27;;
75696;SDS011;64312;44.738;20.612;2023-02-01T15:51:24;29.75;;;15.27;;
75696;SDS011;64312;44.738;20.612;2023-02-01T15:53:53;26.58;;;13.77;;
75696;SDS011;64312;44.738;20.612;2023-02-01T15:56:23;28.63;;;14.82;;
75696;SDS011;64312;44.738;20.612;2023-02-01T15:58:52;28.20;;;14.68;;
75696;SDS011;64312;44.738;20.612;2023-02-01T16:01:20;23.27;;;12.02;;
75696;SDS011;64312;44.738;20.612;2023-02-01T16:03:46;18.48;;;10.40;;
75696;SDS011;64312;44.738;20.612;2023-02-01T16:08:54;17.23;;;8.93;;
75696;SDS011;64312;44.738;20.612;2023-02-01T16:11:40;15.45;;;8.68;;
75696;SDS011;64312;44.738;20.612;2023-02-01T16:14:27;15.15;;;7.10;;
75696;SDS011;64312;44.738;20.612;2023-02-01T16:16:54;14.25;;;6.38;;
75696;SDS011;64312;44.738;20.612;2023-02-01T16:19:21;17.67;;;8.25;;
75696;SDS011;64312;44.738;20.612;2023-02-01T16:21:50;19.60;;;9.02;;
75696;SDS011;64312;44.738;20.612;2023-02-01T16:24:15;20.85;;;9.93;;
75696;SDS011;64312;44.738;20.612;2023-02-01T16:26:41;23.25;;;12.07;;
75696;SDS011;64312;44.738;20.612;2023-02-01T16:29:07;21.05;;;9.20;;
75696;SDS011;64312;44.738;20.612;2023-02-01T16:31:36;15.57;;;7.78;;
75696;SDS011;64312;44.738;20.612;2023-02-01T16:34:04;16.80;;;7.88;;
75696;SDS011;64312;44.738;20.612;2023-02-01T16:36:31;14.30;;;8.05;;
75696;SDS011;64312;44.738;20.612;2023-02-01T16:38:59;13.55;;;7.00;;
75696;SDS011;64312;44.738;20.612;2023-02-01T16:41:25;14.18;;;7.88;;
75696;SDS011;64312;44.738;20.612;2023-02-01T16:43:53;16.08;;;9.32;;
75696;SDS011;64312;44.738;20.612;2023-02-01T16:46:21;21.42;;;10.27;;
75696;SDS011;64312;44.738;20.612;2023-02-01T16:48:59;23.42;;;11.65;;
75696;SDS011;64312;44.738;20.612;2023-02-01T16:51:28;21.90;;;10.55;;
75696;SDS011;64312;44.738;20.612;2023-02-01T16:56:29;16.35;;;8.45;;
75696;SDS011;64312;44.738;20.612;2023-02-01T16:58:57;16.85;;;7.20;;
75696;SDS011;64312;44.738;20.612;2023-02-01T17:01:23;18.50;;;8.48;;
75696;SDS011;64312;44.738;20.612;2023-02-01T17:03:49;17.77;;;7.93;;
75696;SDS011;64312;44.738;20.612;2023-02-01T17:06:17;15.30;;;7.30;;
75696;SDS011;64312;44.738;20.612;2023-02-01T17:08:46;18.63;;;6.93;;
75696;SDS011;64312;44.738;20.612;2023-02-01T17:11:15;18.80;;;6.85;;
75696;SDS011;64312;44.738;20.612;2023-02-01T17:13:41;20.35;;;8.48;;
75696;SDS011;64312;44.738;20.612;2023-02-01T17:16:31;17.40;;;7.80;;
75696;SDS011;64312;44.738;20.612;2023-02-01T17:18:58;26.17;;;8.45;;
75696;SDS011;64312;44.738;20.612;2023-02-01T17:21:28;22.15;;;8.20;;
75696;SDS011;64312;44.738;20.612;2023-02-01T17:23:55;18.73;;;8.25;;
75696;SDS011;64312;44.738;20.612;2023-02-01T17:26:24;16.98;;;8.27;;
75696;SDS011;64312;44.738;20.612;2023-02-01T17:28:50;22.60;;;8.20;;
75696;SDS011;64312;44.738;20.612;2023-02-01T17:31:15;19.75;;;8.48;;
75696;SDS011;64312;44.738;20.612;2023-02-01T17:33:41;25.33;;;8.32;;
75696;SDS011;64312;44.738;20.612;2023-02-01T17:36:10;21.75;;;8.90;;
75696;SDS011;64312;44.738;20.612;2023-02-01T17:38:37;23.02;;;9.55;;